Pasadena, Texas
Current Conditions -  °F | °C
As of 6:50 PM on Saturday 22 Nov 2014 (Local Time) from KEFD Reporting Station
Haze Haze  
Wind Chill: 66°   Ceiling: 7000
Heat Index: 66°   Visibility: 6mi
Dew Point: 64°   Wind: 8mph
Humidity: 94%   Direction: 110°ESE
Pressure: 29.84"   Gusts: NA
Location:  29.69°N, 95.2°W
Report Text: KEFD 230050Z 11007KT 6SM BR SCT009 OVC070 19/18 A2984
Loading
Personal Weather Stations






























Interactive Weather Map New forecast layout! Learn more

10-Day Weather Forecast

Advertisements
Track Severe Weather on mobile